Time;durP1;ratioP1;P1;durP2;ratioP2;P2;SDS_P1;SDS_P2;PMS_P1;PMS_P2;Temp;Humidity;BMP_temperature;BMP_pressure;BME280_temperature;BME280_humidity;BME280_pressure;Samples;Min_cycle;Max_cycle;Signal;HPM_P1;HPM_P2
2023/07/28 00:01:31;;;;;;;;;;;;;;;29.67;29.64;97524.91;5119917;28;19916;-85
2023/07/28 00:03:57;;;;;;;;;;;;;;;29.66;29.22;97512.81;5103376;28;19963;-86
2023/07/28 00:06:23;;;;;;;;;;;;;;;29.52;29.43;97522.06;5093848;28;19948;-86
2023/07/28 00:08:49;;;;;;;;;;;;;;;29.69;29.58;97513.88;5093584;28;19912;-86
2023/07/28 00:11:16;;;;;;;;;;;;;;;29.74;29.79;97518.84;5092304;28;19969;-85
2023/07/28 00:13:42;;;;;;;;;;;;;;;29.73;30.23;97511.66;5093519;28;20365;-85
2023/07/28 00:16:09;;;;;;;;;;;;;;;29.83;29.51;97519.59;5093597;28;20328;-85
2023/07/28 00:18:35;;;;;;;;;;;;;;;29.75;30.16;97512.72;5093261;28;19995;-85
2023/07/28 00:21:01;;;;;;;;;;;;;;;29.73;30.00;97514.47;5094097;28;19912;-85
2023/07/28 00:23:27;;;;;;;;;;;;;;;29.67;30.30;97507.91;5093345;28;19924;-85
2023/07/28 00:25:53;;;;;;;;;;;;;;;29.69;30.56;97511.03;5093509;28;20034;-85
2023/07/28 00:28:19;;;;;;;;;;;;;;;29.51;29.99;97508.38;5092127;28;20035;-85
2023/07/28 00:30:48;;;;;;;;;;;;;;;29.45;29.43;97504.66;5097869;28;19916;-85
2023/07/28 00:33:15;;;;;;;;;;;;;;;29.40;29.84;97504.09;5115388;28;19925;-85
2023/07/28 00:35:41;;;;;;;;;;;;;;;29.37;29.41;97504.25;5117977;28;19916;-85
2023/07/28 00:38:08;;;;;;;;;;;;;;;29.37;29.85;97507.09;5117027;28;19916;-85
2023/07/28 00:40:35;;;;;;;;;;;;;;;29.46;29.35;97495.69;5117852;28;20381;-85
2023/07/28 00:43:01;;;;;;;;;;;;;;;29.49;28.96;97494.72;5117553;28;19924;-86
2023/07/28 00:45:27;;;;;;;;;;;;;;;29.48;28.95;97495.22;5117557;28;19920;-86
2023/07/28 00:47:54;;;;;;;;;;;;;;;29.53;29.05;97491.69;5117308;27;19923;-85
2023/07/28 00:50:21;;;;;;;;;;;;;;;29.52;28.87;97498.63;5117595;28;20285;-85
2023/07/28 00:52:49;;;;;;;;;;;;;;;29.66;29.15;97497.88;5117478;28;19988;-85
2023/07/28 00:55:15;;;;;;;;;;;;;;;29.78;28.72;97494.78;5116589;28;19922;-86
2023/07/28 00:57:41;;;;;;;;;;;;;;;29.83;28.89;97498.97;5117434;28;20383;-85
2023/07/28 01:00:07;;;;;;;;;;;;;;;29.96;28.63;97499.50;5097236;27;20331;-86
2023/07/28 01:02:33;;;;;;;;;;;;;;;30.08;27.89;97487.84;5115930;28;19919;-86
2023/07/28 01:04:59;;;;;;;;;;;;;;;30.01;29.42;97479.00;5117233;28;19916;-85
2023/07/28 01:07:41;;;;;;;;;;;;;;;30.11;29.08;97488.16;5117391;27;19915;-85
2023/07/28 01:10:16;;;;;;;;;;;;;;;30.13;28.45;97472.22;5117113;28;20424;-85
2023/07/28 01:12:42;;;;;;;;;;;;;;;29.90;29.36;97465.41;5116369;28;20334;-85
2023/07/28 01:15:08;;;;;;;;;;;;;;;29.99;28.99;97470.22;5117190;28;19964;-85
2023/07/28 01:17:34;;;;;;;;;;;;;;;30.11;27.89;97460.59;5116836;28;19920;-85
2023/07/28 01:20:00;;;;;;;;;;;;;;;29.95;28.51;97456.25;5117097;28;19995;-85
2023/07/28 01:22:42;;;;;;;;;;;;;;;30.02;28.89;97455.06;5117232;28;20361;-85
2023/07/28 01:25:26;;;;;;;;;;;;;;;29.98;29.02;97454.47;5116849;28;19920;-85
2023/07/28 01:27:53;;;;;;;;;;;;;;;29.77;28.41;97441.50;5116060;28;20035;-85
2023/07/28 01:30:20;;;;;;;;;;;;;;;29.61;28.82;97442.75;5116512;28;19920;-85
2023/07/28 01:32:47;;;;;;;;;;;;;;;29.74;28.57;97440.41;5116709;28;19916;-85
2023/07/28 01:35:13;;;;;;;;;;;;;;;29.91;28.53;97438.69;5116821;28;19965;-85
2023/07/28 01:37:39;;;;;;;;;;;;;;;29.91;29.67;97432.22;5116768;28;19915;-85
2023/07/28 01:40:06;;;;;;;;;;;;;;;29.99;28.94;97437.00;5116692;28;19916;-85
2023/07/28 01:42:32;;;;;;;;;;;;;;;30.16;28.15;97434.44;5116470;28;20361;-85
2023/07/28 01:44:58;;;;;;;;;;;;;;;29.94;28.79;97426.34;5114398;27;19916;-85
2023/07/28 01:47:25;;;;;;;;;;;;;;;29.87;28.67;97434.50;5116540;28;20394;-85
2023/07/28 01:49:51;;;;;;;;;;;;;;;29.86;29.30;97427.25;5116582;28;19916;-85
2023/07/28 01:52:17;;;;;;;;;;;;;;;29.99;29.16;97425.66;5116291;27;20014;-85
2023/07/28 01:54:43;;;;;;;;;;;;;;;30.10;28.52;97425.09;5116335;28;20388;-85
2023/07/28 01:57:09;;;;;;;;;;;;;;;29.96;29.47;97425.88;5116121;28;20006;-85
2023/07/28 01:59:35;;;;;;;;;;;;;;;30.05;28.38;97420.09;5116020;28;19915;-85
2023/07/28 02:02:01;;;;;;;;;;;;;;;29.96;28.84;97418.19;5113654;28;19920;-85
2023/07/28 02:04:27;;;;;;;;;;;;;;;29.98;29.90;97420.50;5095755;28;19967;-85
2023/07/28 02:06:53;;;;;;;;;;;;;;;30.00;30.16;97412.31;5095729;28;19927;-85
2023/07/28 02:09:19;;;;;;;;;;;;;;;30.13;28.42;97417.66;5095681;28;19958;-85
2023/07/28 02:11:45;;;;;;;;;;;;;;;30.01;29.12;97419.53;5095666;28;19916;-85
2023/07/28 02:14:11;;;;;;;;;;;;;;;29.98;29.29;97406.34;5095338;28;19963;-85
2023/07/28 02:16:37;;;;;;;;;;;;;;;29.88;29.85;97402.84;5095636;28;20342;-86
2023/07/28 02:19:03;;;;;;;;;;;;;;;29.97;29.89;97408.41;5096107;28;19924;-85
2023/07/28 02:21:29;;;;;;;;;;;;;;;30.07;29.58;97411.91;5095457;28;20297;-85
2023/07/28 02:23:55;;;;;;;;;;;;;;;30.14;29.23;97410.72;5095362;28;19916;-85
2023/07/28 02:26:21;;;;;;;;;;;;;;;30.22;28.89;97406.22;5095306;28;20323;-85
2023/07/28 02:28:47;;;;;;;;;;;;;;;30.31;28.25;97406.88;5101498;28;19935;-85
2023/07/28 02:31:13;;;;;;;;;;;;;;;30.14;29.23;97413.53;5115599;28;19919;-85
2023/07/28 02:33:39;;;;;;;;;;;;;;;30.14;27.99;97407.88;5115474;28;20292;-85
2023/07/28 02:36:05;;;;;;;;;;;;;;;30.17;28.95;97413.34;5114641;28;19917;-85
2023/07/28 02:38:31;;;;;;;;;;;;;;;30.17;29.33;97406.91;5115542;28;19916;-85
2023/07/28 02:40:57;;;;;;;;;;;;;;;30.20;29.24;97403.84;5115347;28;19919;-85
2023/07/28 02:43:23;;;;;;;;;;;;;;;30.13;29.14;97406.34;5115117;28;19923;-85
2023/07/28 02:45:53;;;;;;;;;;;;;;;30.13;29.89;97403.50;5115294;28;19962;-85
2023/07/28 02:48:21;;;;;;;;;;;;;;;30.11;29.20;97398.31;5115232;28;20019;-86
2023/07/28 02:50:47;;;;;;;;;;;;;;;30.11;29.66;97403.97;5115290;28;19962;-85
2023/07/28 02:53:14;;;;;;;;;;;;;;;30.11;29.54;97395.47;5114272;28;19927;-85
2023/07/28 02:55:43;;;;;;;;;;;;;;;30.17;29.67;97390.69;5115037;28;19915;-85
2023/07/28 02:58:09;;;;;;;;;;;;;;;30.36;29.11;97397.72;5114932;28;19923;-85
2023/07/28 03:00:41;;;;;;;;;;;;;;;30.53;29.63;97398.72;5115022;28;19969;-86
2023/07/28 03:03:10;;;;;;;;;;;;;;;30.46;30.39;97389.84;5108165;28;19973;-86
2023/07/28 03:05:37;;;;;;;;;;;;;;;30.20;31.13;97398.19;5094418;28;20364;-86
2023/07/28 03:08:03;;;;;;;;;;;;;;;30.19;29.88;97393.03;5094555;28;19920;-86
2023/07/28 03:10:29;;;;;;;;;;;;;;;30.16;30.61;97389.13;5100525;28;19916;-86
2023/07/28 03:12:55;;;;;;;;;;;;;;;30.28;28.90;97387.22;5114607;28;19923;-86
2023/07/28 03:15:22;;;;;;;;;;;;;;;30.39;29.42;97391.03;5114796;28;20315;-85
2023/07/28 03:17:48;;;;;;;;;;;;;;;30.48;29.13;97388.06;5114737;28;19916;-85
2023/07/28 03:20:14;;;;;;;;;;;;;;;30.61;29.02;97377.19;5114687;28;19923;-86
2023/07/28 03:22:40;;;;;;;;;;;;;;;30.72;29.23;97368.81;5114961;28;19920;-85
2023/07/28 03:25:07;;;;;;;;;;;;;;;30.81;27.97;97373.56;5114627;28;19965;-85
2023/07/28 03:27:33;;;;;;;;;;;;;;;30.63;29.32;97374.63;5113516;28;20425;-85
2023/07/28 03:29:59;;;;;;;;;;;;;;;30.55;28.56;97367.81;5114780;28;19969;-85
2023/07/28 03:32:25;;;;;;;;;;;;;;;30.42;29.48;97369.44;5112974;28;19916;-85
2023/07/28 03:34:52;;;;;;;;;;;;;;;30.47;29.04;97369.53;5114541;28;19936;-85
2023/07/28 03:37:18;;;;;;;;;;;;;;;30.59;28.86;97367.63;5114688;28;19916;-85
2023/07/28 03:39:44;;;;;;;;;;;;;;;30.58;29.03;97364.00;5114485;28;19922;-86
2023/07/28 03:42:10;;;;;;;;;;;;;;;30.37;29.67;97370.94;5114048;28;19924;-85
2023/07/28 03:44:37;;;;;;;;;;;;;;;30.06;30.08;97368.63;5113307;28;19923;-85
2023/07/28 03:47:04;;;;;;;;;;;;;;;29.80;30.17;97369.78;5114284;28;19927;-85
2023/07/28 03:49:30;;;;;;;;;;;;;;;29.72;30.61;97374.25;5109265;28;19919;-86
2023/07/28 03:51:56;;;;;;;;;;;;;;;29.58;30.19;97366.53;5097978;28;19931;-86
2023/07/28 03:54:22;;;;;;;;;;;;;;;29.23;31.08;97372.88;5113320;28;19920;-86
2023/07/28 03:56:48;;;;;;;;;;;;;;;29.30;31.13;97364.03;5100497;28;20444;-86
2023/07/28 03:59:14;;;;;;;;;;;;;;;29.40;30.79;97371.16;5093738;28;19918;-86
2023/07/28 04:01:40;;;;;;;;;;;;;;;29.71;30.84;97375.53;5113087;28;19919;-86
2023/07/28 04:04:07;;;;;;;;;;;;;;;29.87;31.17;97372.22;5113896;28;20327;-86
2023/07/28 04:06:44;;;;;;;;;;;;;;;29.87;31.22;97372.97;5114084;28;20396;-86
2023/07/28 04:09:11;;;;;;;;;;;;;;;30.05;30.75;97371.97;5113502;28;19962;-85
2023/07/28 04:11:37;;;;;;;;;;;;;;;30.10;30.37;97374.13;5113853;28;20389;-85
2023/07/28 04:14:03;;;;;;;;;;;;;;;30.19;29.88;97370.38;5113949;28;19973;-85
2023/07/28 04:16:30;;;;;;;;;;;;;;;30.31;30.92;97377.75;5113978;28;19916;-85
2023/07/28 04:18:56;;;;;;;;;;;;;;;30.47;30.29;97372.38;5103949;28;20285;-85
2023/07/28 04:21:22;;;;;;;;;;;;;;;30.61;29.57;97365.06;5093460;28;19916;-83
2023/07/28 04:23:48;;;;;;;;;;;;;;;30.58;29.48;97357.53;5093439;28;19916;-85
2023/07/28 04:26:14;;;;;;;;;;;;;;;30.60;30.41;97355.78;5093234;28;20381;-86
2023/07/28 04:28:40;;;;;;;;;;;;;;;30.66;30.58;97359.47;5093410;28;19916;-86
2023/07/28 04:31:06;;;;;;;;;;;;;;;30.77;30.74;97345.44;5093488;28;19955;-86
2023/07/28 04:33:32;;;;;;;;;;;;;;;30.75;31.03;97361.38;5091995;28;19928;-86
2023/07/28 04:35:58;;;;;;;;;;;;;;;30.76;30.98;97351.59;5093952;28;19916;-86
2023/07/28 04:38:24;;;;;;;;;;;;;;;30.77;31.21;97353.16;5093460;28;19916;-86
2023/07/28 04:40:50;;;;;;;;;;;;;;;30.84;29.12;97346.25;5093144;28;19916;-86
2023/07/28 04:43:16;;;;;;;;;;;;;;;30.56;30.23;97343.09;5093390;28;19916;-86
2023/07/28 04:45:44;;;;;;;;;;;;;;;30.41;31.68;97357.31;5093141;28;19916;-86
2023/07/28 04:48:10;;;;;;;;;;;;;;;30.80;30.42;97343.66;5093316;28;20365;-86
2023/07/28 04:50:36;;;;;;;;;;;;;;;30.83;30.94;97336.97;5093449;28;19957;-86
2023/07/28 04:53:02;;;;;;;;;;;;;;;31.15;31.27;97343.56;5093502;28;19924;-86
2023/07/28 04:55:28;;;;;;;;;;;;;;;31.36;30.17;97331.66;5093038;28;19920;-86
2023/07/28 04:57:55;;;;;;;;;;;;;;;31.36;29.27;97342.22;5093227;28;20323;-86
2023/07/28 05:00:21;;;;;;;;;;;;;;;31.28;31.34;97330.53;5091929;28;20385;-86
2023/07/28 05:02:47;;;;;;;;;;;;;;;31.54;30.96;97330.53;5097014;28;20288;-86
2023/07/28 05:05:13;;;;;;;;;;;;;;;31.69;30.32;97331.19;5113407;28;19920;-86
2023/07/28 05:07:39;;;;;;;;;;;;;;;31.81;30.61;97329.22;5113530;28;20340;-86
2023/07/28 05:10:05;;;;;;;;;;;;;;;31.92;31.19;97330.06;5101627;28;19959;-86
2023/07/28 05:12:31;;;;;;;;;;;;;;;31.90;30.90;97326.19;5093020;28;19920;-86
2023/07/28 05:14:57;;;;;;;;;;;;;;;31.57;31.44;97328.75;5093131;28;19916;-86
2023/07/28 05:17:23;;;;;;;;;;;;;;;31.35;30.95;97320.78;5091684;28;20301;-86
2023/07/28 05:19:49;;;;;;;;;;;;;;;31.48;30.30;97315.53;5093904;28;19916;-86
2023/07/28 05:22:15;;;;;;;;;;;;;;;31.59;30.97;97315.63;5096394;28;20451;-86
2023/07/28 05:24:42;;;;;;;;;;;;;;;31.81;29.83;97315.03;5096731;28;19916;-86
2023/07/28 05:27:08;;;;;;;;;;;;;;;31.93;30.51;97323.09;5097006;28;20373;-86
2023/07/28 05:29:34;;;;;;;;;;;;;;;32.07;31.71;97318.56;5096374;28;20297;-87
2023/07/28 05:32:00;;;;;;;;;;;;;;;32.18;30.92;97330.03;5096524;28;20447;-86
2023/07/28 05:34:26;;;;;;;;;;;;;;;32.20;31.61;97324.59;5096293;28;19916;-86
2023/07/28 05:36:52;;;;;;;;;;;;;;;32.16;31.71;97326.13;5096096;28;19938;-86
2023/07/28 05:39:18;;;;;;;;;;;;;;;31.97;31.11;97322.91;5107143;28;19942;-87
2023/07/28 05:41:44;;;;;;;;;;;;;;;31.83;31.84;97327.44;5115623;28;19916;-87
2023/07/28 05:44:10;;;;;;;;;;;;;;;31.78;31.98;97321.72;5096540;28;20369;-87
2023/07/28 05:46:36;;;;;;;;;;;;;;;31.77;33.01;97320.91;5096223;28;19916;-87
2023/07/28 05:49:02;;;;;;;;;;;;;;;31.84;32.43;97323.28;5094808;28;19970;-87
2023/07/28 05:51:28;;;;;;;;;;;;;;;31.91;32.52;97327.72;5095961;28;19916;-87
2023/07/28 05:53:54;;;;;;;;;;;;;;;31.96;32.72;97324.97;5095861;28;19920;-87
2023/07/28 05:56:20;;;;;;;;;;;;;;;32.22;32.47;97329.75;5095940;28;19916;-87
2023/07/28 05:58:47;;;;;;;;;;;;;;;32.20;32.44;97326.66;5095816;28;20286;-87
2023/07/28 06:01:13;;;;;;;;;;;;;;;32.27;32.81;97331.88;5096482;28;19936;-87
2023/07/28 06:03:39;;;;;;;;;;;;;;;32.16;33.18;97329.72;5106977;28;19919;-87
2023/07/28 06:06:05;;;;;;;;;;;;;;;31.97;33.70;97335.03;5115814;28;19916;-86
2023/07/28 06:08:31;;;;;;;;;;;;;;;31.72;34.02;97327.31;5116405;28;19915;-86
2023/07/28 06:10:57;;;;;;;;;;;;;;;31.96;33.12;97327.81;5116136;28;19916;-87
2023/07/28 06:13:23;;;;;;;;;;;;;;;31.80;33.28;97330.50;5116262;28;19919;-87
2023/07/28 06:15:49;;;;;;;;;;;;;;;31.96;33.71;97336.31;5116262;28;19966;-87
2023/07/28 06:18:16;;;;;;;;;;;;;;;32.17;33.67;97336.19;5103093;28;20258;-87
2023/07/28 06:20:43;;;;;;;;;;;;;;;32.20;33.57;97335.97;5095449;28;19923;-87
2023/07/28 06:23:09;;;;;;;;;;;;;;;32.37;32.36;97333.22;5095424;28;19974;-87
2023/07/28 06:25:36;;;;;;;;;;;;;;;32.59;32.35;97339.03;5095440;28;19922;-87
2023/07/28 06:28:02;;;;;;;;;;;;;;;32.74;30.90;97336.78;5095404;28;19949;-87
2023/07/28 06:30:28;;;;;;;;;;;;;;;32.68;30.31;97342.44;5094811;28;19916;-87
2023/07/28 06:32:54;;;;;;;;;;;;;;;32.72;31.22;97336.53;5095295;28;20400;-87
2023/07/28 06:35:20;;;;;;;;;;;;;;;32.92;31.28;97344.84;5095619;28;19916;-87
2023/07/28 06:37:46;;;;;;;;;;;;;;;32.95;31.56;97338.16;5095159;28;20350;-87
2023/07/28 06:40:12;;;;;;;;;;;;;;;33.07;31.28;97342.59;5095130;28;20280;-87
2023/07/28 06:42:38;;;;;;;;;;;;;;;33.15;31.12;97337.97;5094834;28;20289;-87
2023/07/28 06:45:05;;;;;;;;;;;;;;;33.02;30.96;97340.53;5095092;28;19923;-87
2023/07/28 06:47:31;;;;;;;;;;;;;;;33.05;31.19;97342.31;5110646;28;20328;-87
2023/07/28 06:49:57;;;;;;;;;;;;;;;32.99;31.03;97350.03;5095505;28;19916;-87
2023/07/28 06:52:23;;;;;;;;;;;;;;;33.03;29.87;97344.91;5095341;28;20380;-87
2023/07/28 06:54:49;;;;;;;;;;;;;;;33.10;31.11;97350.09;5094890;28;20292;-87
2023/07/28 06:57:15;;;;;;;;;;;;;;;33.14;31.22;97355.56;5095133;28;20000;-87
2023/07/28 06:59:42;;;;;;;;;;;;;;;33.11;31.14;97365.88;5094728;28;19974;-87
2023/07/28 07:02:09;;;;;;;;;;;;;;;33.13;30.57;97362.53;5094609;28;20404;-87
2023/07/28 07:04:35;;;;;;;;;;;;;;;33.04;30.27;97377.75;5094426;28;19916;-87
2023/07/28 07:07:02;;;;;;;;;;;;;;;32.90;30.38;97377.94;5111919;28;19916;-87
2023/07/28 07:09:28;;;;;;;;;;;;;;;32.70;29.83;97382.50;5100273;28;19978;-87
2023/07/28 07:11:54;;;;;;;;;;;;;;;32.35;30.79;97381.25;5094559;28;19916;-87
2023/07/28 07:14:20;;;;;;;;;;;;;;;32.46;31.10;97381.31;5094459;28;19963;-87
2023/07/28 07:16:46;;;;;;;;;;;;;;;32.48;31.54;97373.84;5094478;28;19920;-87
2023/07/28 07:19:13;;;;;;;;;;;;;;;32.61;31.87;97379.09;5094219;28;19916;-87
2023/07/28 07:21:39;;;;;;;;;;;;;;;32.74;32.25;97373.75;5094512;28;19974;-88
2023/07/28 07:24:05;;;;;;;;;;;;;;;32.88;31.63;97387.00;5094205;28;20314;-87
2023/07/28 07:26:31;;;;;;;;;;;;;;;32.95;30.33;97383.66;5094960;28;19982;-88
2023/07/28 07:28:57;;;;;;;;;;;;;;;32.94;30.43;97382.09;5094351;28;19985;-88
2023/07/28 07:31:23;;;;;;;;;;;;;;;32.62;31.29;97389.19;5094115;28;19924;-87
2023/07/28 07:33:50;;;;;;;;;;;;;;;32.39;31.29;97382.56;5093910;28;19922;-87
2023/07/28 07:36:16;;;;;;;;;;;;;;;32.49;31.88;97388.81;5094470;28;20350;-88
2023/07/28 07:38:45;;;;;;;;;;;;;;;32.69;31.17;97388.72;5092726;28;20273;-88
2023/07/28 07:41:12;;;;;;;;;;;;;;;32.66;31.02;97389.72;5094192;28;20287;-87
2023/07/28 07:43:38;;;;;;;;;;;;;;;32.63;31.70;97385.03;5093703;28;19923;-87
2023/07/28 07:46:04;;;;;;;;;;;;;;;32.61;31.36;97388.41;5093943;28;19934;-88
2023/07/28 07:48:30;;;;;;;;;;;;;;;32.37;32.49;97390.81;5093755;28;19916;-88
2023/07/28 07:50:56;;;;;;;;;;;;;;;32.37;31.15;97385.13;5093864;28;20011;-86
2023/07/28 07:53:23;;;;;;;;;;;;;;;32.38;32.13;97388.75;5093570;28;19924;-87
2023/07/28 07:55:49;;;;;;;;;;;;;;;32.43;32.49;97385.16;5093936;28;19978;-87
2023/07/28 07:58:15;;;;;;;;;;;;;;;32.75;31.96;97389.50;5094066;28;20372;-88
2023/07/28 08:00:41;;;;;;;;;;;;;;;32.40;31.71;97389.03;5094352;28;19923;-86
2023/07/28 08:03:07;;;;;;;;;;;;;;;32.31;32.73;97387.16;5093762;28;20281;-87
2023/07/28 08:05:33;;;;;;;;;;;;;;;32.36;32.66;97391.31;5098548;28;20019;-87
2023/07/28 08:08:00;;;;;;;;;;;;;;;32.45;32.79;97394.75;5114086;28;20017;-88
2023/07/28 08:10:26;;;;;;;;;;;;;;;32.53;33.77;97390.19;5114279;28;19915;-88
2023/07/28 08:12:52;;;;;;;;;;;;;;;32.66;32.37;97398.25;5113987;28;19923;-87
2023/07/28 08:15:18;;;;;;;;;;;;;;;32.32;33.92;97394.41;5114062;28;19951;-88
2023/07/28 08:17:45;;;;;;;;;;;;;;;32.20;32.48;97397.69;5096891;28;19916;-86
2023/07/28 08:20:11;;;;;;;;;;;;;;;32.47;33.74;97394.22;5093594;28;19916;-88
2023/07/28 08:22:38;;;;;;;;;;;;;;;32.59;32.66;97395.88;5093525;28;19933;-88
2023/07/28 08:25:04;;;;;;;;;;;;;;;32.95;33.46;97400.72;5093541;28;19920;-88
2023/07/28 09:12:59;;;;;;;;;;;;;;;30.24;37.71;97417.81;5111634;27;19942;-87
2023/07/28 09:15:25;;;;;;;;;;;;;;;30.28;37.51;97418.38;5111354;28;20046;-87
2023/07/28 09:17:51;;;;;;;;;;;;;;;31.16;36.77;97404.66;5108422;28;19963;-87
2023/07/28 09:20:17;;;;;;;;;;;;;;;31.57;36.18;97399.72;5090630;28;20383;-87
2023/07/28 09:22:44;;;;;;;;;;;;;;;32.00;35.65;97398.56;5090743;28;19923;-87
2023/07/28 09:25:14;;;;;;;;;;;;;;;32.11;35.68;97406.41;5090796;28;20265;-87
2023/07/28 09:27:40;;;;;;;;;;;;;;;32.39;34.71;97404.53;5090766;28;19970;-87
2023/07/28 09:30:07;;;;;;;;;;;;;;;32.71;34.71;97398.28;5090693;28;19917;-87
2023/07/28 09:32:35;;;;;;;;;;;;;;;33.04;34.13;97396.88;5091517;28;19966;-88
2023/07/28 09:35:12;;;;;;;;;;;;;;;33.23;33.34;97390.25;5094287;28;19953;-87
2023/07/28 09:37:39;;;;;;;;;;;;;;;33.15;33.99;97397.72;5111095;28;20294;-87
2023/07/28 09:40:09;;;;;;;;;;;;;;;33.10;33.47;97389.94;5110764;28;20172;-87
2023/07/28 09:42:36;;;;;;;;;;;;;;;33.08;34.20;97380.34;5111071;28;19916;-87
2023/07/28 09:45:02;;;;;;;;;;;;;;;33.33;33.52;97385.06;5110655;28;19916;-87
2023/07/28 09:47:30;;;;;;;;;;;;;;;33.60;34.13;97386.44;5109399;28;19923;-88
2023/07/28 09:49:58;;;;;;;;;;;;;;;33.72;35.78;97382.31;5111007;28;20390;-87
2023/07/28 09:52:24;;;;;;;;;;;;;;;34.14;36.05;97381.28;5108500;28;20322;-87
2023/07/28 09:54:52;;;;;;;;;;;;;;;34.45;35.00;97383.84;5109299;28;19987;-87
2023/07/28 09:57:20;;;;;;;;;;;;;;;34.65;34.47;97378.63;5099825;28;19923;-87
2023/07/28 09:59:47;;;;;;;;;;;;;;;34.97;34.16;97381.88;5109244;28;19929;-87
2023/07/28 10:02:13;;;;;;;;;;;;;;;35.37;35.43;97384.03;5110374;28;19966;-88
2023/07/28 10:04:40;;;;;;;;;;;;;;;34.93;31.09;97374.88;5110219;28;19960;-86
2023/07/28 10:07:07;;;;;;;;;;;;;;;34.45;30.98;97378.16;5109080;28;19959;-87
2023/07/28 10:09:33;;;;;;;;;;;;;;;34.45;33.10;97381.75;5101333;28;19916;-88
2023/07/28 10:12:00;;;;;;;;;;;;;;;34.55;30.95;97373.72;5087155;28;19929;-88
2023/07/28 10:14:28;;;;;;;;;;;;;;;34.82;31.80;97380.63;5076144;28;19948;-87
2023/07/28 10:16:54;;;;;;;;;;;;;;;34.96;32.18;97385.25;5076234;28;19917;-88
2023/07/28 10:19:20;;;;;;;;;;;;;;;34.77;30.34;97387.91;5076304;28;20400;-88
2023/07/28 10:21:46;;;;;;;;;;;;;;;34.85;33.11;97390.97;5076384;28;19923;-87
2023/07/28 10:24:14;;;;;;;;;;;;;;;34.64;32.60;97394.19;5076325;28;19917;-87
2023/07/28 10:26:41;;;;;;;;;;;;;;;34.86;32.30;97381.13;5076865;28;19913;-88
2023/07/28 10:29:10;;;;;;;;;;;;;;;34.81;31.54;97388.41;5075922;28;19923;-88
2023/07/28 10:31:36;;;;;;;;;;;;;;;35.00;31.72;97395.09;5075946;28;20079;-87
2023/07/28 10:34:03;;;;;;;;;;;;;;;35.00;31.80;97400.78;5076106;28;19916;-87
2023/07/28 10:36:29;;;;;;;;;;;;;;;34.96;33.30;97400.28;5075918;28;19920;-89
2023/07/28 10:39:04;;;;;;;;;;;;;;;34.93;31.79;97403.41;5076082;28;20389;-88
2023/07/28 10:41:33;;;;;;;;;;;;;;;34.45;30.72;97401.69;5075817;28;19924;-88
2023/07/28 10:43:59;;;;;;;;;;;;;;;34.49;32.95;97402.22;5074850;28;20334;-90
2023/07/28 10:46:26;;;;;;;;;;;;;;;34.10;32.11;97378.69;5076038;28;19970;-89
2023/07/28 10:48:53;;;;;;;;;;;;;;;34.12;31.63;97412.38;5076022;28;19917;-88
2023/07/28 10:51:28;;;;;;;;;;;;;;;34.40;30.80;97382.53;5074395;28;19924;-89
2023/07/28 10:53:57;;;;;;;;;;;;;;;33.99;30.51;97410.03;5075764;28;19969;-88
2023/07/28 10:56:25;;;;;;;;;;;;;;;34.12;32.27;97404.63;5077602;28;20019;-89
2023/07/28 10:58:57;;;;;;;;;;;;;;;34.13;29.48;97406.16;5095673;28;20441;-88
2023/07/28 11:01:25;;;;;;;;;;;;;;;33.99;30.71;97415.72;5079899;28;20391;-89
2023/07/28 11:03:51;;;;;;;;;;;;;;;33.74;30.86;97409.00;5074301;28;19921;-89
2023/07/28 11:06:17;;;;;;;;;;;;;;;33.98;30.95;97409.25;5075457;28;19919;-88
2023/07/28 11:08:43;;;;;;;;;;;;;;;34.08;31.58;97416.28;5075386;28;19917;-88
2023/07/28 11:11:09;;;;;;;;;;;;;;;34.10;32.65;97421.44;5075076;28;19925;-89
2023/07/28 11:13:35;;;;;;;;;;;;;;;33.95;34.81;97420.91;5075114;28;20377;-88
2023/07/28 11:16:02;;;;;;;;;;;;;;;33.64;30.69;97421.13;5075288;28;19916;-89
2023/07/28 11:18:28;;;;;;;;;;;;;;;33.82;32.96;97424.25;5075806;28;20331;-88
2023/07/28 11:20:54;;;;;;;;;;;;;;;33.75;32.11;97424.00;5075088;28;20464;-88
2023/07/28 11:23:20;;;;;;;;;;;;;;;33.06;33.22;97426.38;5075194;28;19952;-88
2023/07/28 11:25:47;;;;;;;;;;;;;;;33.07;34.17;97430.00;5074359;28;20007;-88
2023/07/28 11:28:13;;;;;;;;;;;;;;;32.98;34.11;97424.53;5075056;28;20036;-90
2023/07/28 11:30:39;;;;;;;;;;;;;;;33.31;33.66;97419.75;5075056;28;19924;-89
2023/07/28 11:33:08;;;;;;;;;;;;;;;33.60;33.98;97417.75;5075169;28;19920;-88
2023/07/28 11:35:34;;;;;;;;;;;;;;;34.07;32.40;97411.09;5075471;28;19917;-91
2023/07/28 11:38:00;;;;;;;;;;;;;;;34.72;32.68;97412.31;5074831;28;19920;-89
2023/07/28 11:40:27;;;;;;;;;;;;;;;34.78;31.21;97420.84;5074652;28;19974;-88
2023/07/28 11:42:54;;;;;;;;;;;;;;;34.58;31.99;97421.94;5078280;28;20051;-89
2023/07/28 11:45:22;;;;;;;;;;;;;;;34.80;32.89;97412.53;5082401;28;19977;-90
2023/07/28 11:47:52;;;;;;;;;;;;;;;35.25;32.05;97416.00;5083071;28;19917;-89
2023/07/28 11:50:22;;;;;;;;;;;;;;;35.60;31.96;97412.44;5077468;28;19964;-89
2023/07/28 11:52:49;;;;;;;;;;;;;;;35.60;31.33;97418.16;5075435;28;19931;-89
2023/07/28 11:55:16;;;;;;;;;;;;;;;35.49;31.91;97427.56;5074527;28;19916;-90
2023/07/28 11:57:43;;;;;;;;;;;;;;;35.33;32.71;97419.88;5087520;28;19950;-89
2023/07/28 12:00:09;;;;;;;;;;;;;;;35.51;32.29;97413.56;5094734;28;19920;-88
2023/07/28 12:02:35;;;;;;;;;;;;;;;35.42;31.73;97411.75;5094442;28;19967;-88
2023/07/28 12:05:11;;;;;;;;;;;;;;;35.44;29.70;97419.78;5093343;28;19916;-89
2023/07/28 12:07:37;;;;;;;;;;;;;;;35.03;29.94;97418.97;5093544;28;19916;-88
2023/07/28 12:10:06;;;;;;;;;;;;;;;34.97;31.72;97412.47;5073986;28;19917;-89
2023/07/28 12:12:38;;;;;;;;;;;;;;;35.07;31.38;97396.63;5073986;28;20007;-88
2023/07/28 12:15:18;;;;;;;;;;;;;;;34.90;33.06;97404.44;5074346;28;19917;-89
2023/07/28 12:17:59;;;;;;;;;;;;;;;35.25;33.18;97416.78;5074057;28;20365;-89
2023/07/28 12:20:25;;;;;;;;;;;;;;;35.21;32.34;97419.16;5073987;28;19970;-90
2023/07/28 12:22:51;;;;;;;;;;;;;;;34.99;31.61;97402.09;5074006;28;19920;-90
2023/07/28 12:25:17;;;;;;;;;;;;;;;34.91;31.83;97423.91;5074331;28;19917;-89
2023/07/28 12:27:43;;;;;;;;;;;;;;;34.89;32.67;97420.81;5073846;28;19927;-89
2023/07/28 12:30:10;;;;;;;;;;;;;;;35.15;32.61;97423.34;5075589;28;19956;-90
2023/07/28 12:32:36;;;;;;;;;;;;;;;35.12;30.31;97412.97;5074140;28;20023;-89
2023/07/28 12:35:02;;;;;;;;;;;;;;;35.24;31.09;97420.94;5073967;28;19952;-88
2023/07/28 12:37:28;;;;;;;;;;;;;;;35.15;31.47;97431.91;5074060;28;19916;-88
2023/07/28 12:39:54;;;;;;;;;;;;;;;34.96;31.64;97437.38;5074615;28;20006;-89
2023/07/28 12:42:20;;;;;;;;;;;;;;;34.95;30.80;97424.41;5080781;28;19966;-89
2023/07/28 12:44:46;;;;;;;;;;;;;;;34.91;33.57;97435.34;5093911;28;19916;-88
2023/07/28 12:47:12;;;;;;;;;;;;;;;35.15;32.17;97431.91;5094052;28;19943;-88
2023/07/28 12:49:38;;;;;;;;;;;;;;;35.18;33.89;97431.59;5093996;28;20472;-88
2023/07/28 12:52:09;;;;;;;;;;;;;;;35.29;36.29;97425.06;5086555;28;20391;-89
2023/07/28 12:54:35;;;;;;;;;;;;;;;35.44;32.87;97434.06;5073526;28;20017;-89
2023/07/28 12:57:01;;;;;;;;;;;;;;;35.82;32.91;97438.03;5073470;28;19916;-89
2023/07/28 12:59:29;;;;;;;;;;;;;;;36.34;33.13;97426.47;5081129;28;19920;-89
2023/07/28 13:01:55;;;;;;;;;;;;;;;36.21;29.81;97426.28;5093916;28;19939;-88
2023/07/28 13:04:21;;;;;;;;;;;;;;;36.34;34.55;97421.47;5092496;28;19923;-89
2023/07/28 13:06:48;;;;;;;;;;;;;;;36.05;32.80;97425.13;5093609;28;19916;-89
2023/07/28 13:09:14;;;;;;;;;;;;;;;36.32;32.95;97423.31;5093540;28;19916;-89
2023/07/28 13:11:40;;;;;;;;;;;;;;;36.78;34.01;97428.09;5092229;28;19973;-90
2023/07/28 13:14:06;;;;;;;;;;;;;;;36.76;30.17;97427.88;5093681;28;19917;-88
2023/07/28 13:16:32;;;;;;;;;;;;;;;36.92;32.40;97436.31;5091420;28;19918;-89
2023/07/28 13:18:59;;;;;;;;;;;;;;;36.72;33.25;97440.38;5093857;28;19916;-89
2023/07/28 14:11:29;;;;;;;;;;;;;;;36.44;32.34;97441.94;5152699;27;19960;-87
2023/07/28 14:13:55;;;;;;;;;;;;;;;36.62;33.55;97446.97;5152468;27;19976;-88
2023/07/28 14:16:21;;;;;;;;;;;;;;;36.46;35.43;97440.13;5150109;27;19923;-88
2023/07/28 14:18:48;;;;;;;;;;;;;;;36.41;31.63;97437.31;5131732;27;19961;-89
2023/07/28 14:21:14;;;;;;;;;;;;;;;36.71;34.48;97432.34;5131580;27;19968;-88